createdAt,value
2022-08-26T00:01:30.152Z,13.10
2022-08-26T00:03:56.936Z,8.65
2022-08-26T00:06:24.594Z,6.95
2022-08-26T00:08:51.318Z,8.25
2022-08-26T00:11:26.705Z,6.50
2022-08-26T00:13:54.871Z,8.00
2022-08-26T00:16:23.572Z,8.95
2022-08-26T00:18:50.258Z,7.05
2022-08-26T00:21:17.295Z,7.78
2022-08-26T00:23:44.606Z,6.78
2022-08-26T00:26:11.239Z,9.32
2022-08-26T00:28:38.018Z,8.27
2022-08-26T00:31:07.308Z,9.57
2022-08-26T00:33:33.922Z,6.78
2022-08-26T00:36:01.692Z,7.93
2022-08-26T00:38:30.435Z,6.70
2022-08-26T00:40:57.541Z,8.38
2022-08-26T00:43:26.122Z,8.27
2022-08-26T00:46:03.835Z,10.57
2022-08-26T00:48:32.284Z,7.03
2022-08-26T00:51:11.179Z,8.38
2022-08-26T00:53:45.419Z,7.13
2022-08-26T00:56:24.936Z,6.55
2022-08-26T00:58:51.922Z,10.55
2022-08-26T01:01:18.953Z,7.30
2022-08-26T01:03:50.228Z,10.05
2022-08-26T01:06:16.805Z,10.02
2022-08-26T01:08:43.693Z,6.45
2022-08-26T01:11:11.811Z,7.00
2022-08-26T01:13:39.803Z,9.68
2022-08-26T01:16:10.581Z,9.50
2022-08-26T01:18:37.293Z,6.97
2022-08-26T01:21:21.618Z,6.55
2022-08-26T01:23:51.729Z,9.93
2022-08-26T01:26:36.570Z,9.87
2022-08-26T01:29:06.600Z,8.75
2022-08-26T01:31:41.855Z,9.77
2022-08-26T01:34:16.982Z,7.82
2022-08-26T01:36:47.937Z,8.93
2022-08-26T01:39:18.499Z,9.25
2022-08-26T01:41:46.248Z,7.28
2022-08-26T01:44:17.337Z,7.32
2022-08-26T01:46:46.377Z,7.85
2022-08-26T01:49:15.149Z,10.57
2022-08-26T01:51:44.405Z,7.63
2022-08-26T01:54:13.745Z,7.95
2022-08-26T01:56:41.076Z,10.10
2022-08-26T01:59:12.409Z,8.18
2022-08-26T02:01:40.242Z,8.27
2022-08-26T02:04:15.836Z,9.98
2022-08-26T02:06:43.536Z,10.98
2022-08-26T02:09:11.323Z,7.88
2022-08-26T02:11:38.603Z,10.45
2022-08-26T02:14:12.491Z,8.20
2022-08-26T02:16:45.434Z,7.57
2022-08-26T02:19:18.746Z,7.90
2022-08-26T02:21:51.236Z,9.07
2022-08-26T02:24:27.546Z,10.23
2022-08-26T02:26:55.871Z,8.90
2022-08-26T02:29:24.682Z,10.13
2022-08-26T02:31:52.465Z,14.70
2022-08-26T02:34:21.736Z,8.65
2022-08-26T02:36:49.361Z,8.90
2022-08-26T02:39:22.149Z,11.27
2022-08-26T02:41:49.636Z,9.85
2022-08-26T02:44:16.161Z,11.02
2022-08-26T02:46:46.933Z,9.70
2022-08-26T02:49:14.994Z,7.63
2022-08-26T02:51:41.527Z,10.68
2022-08-26T02:54:09.624Z,10.93
2022-08-26T02:56:36.299Z,9.20
2022-08-26T02:59:02.805Z,14.45
2022-08-26T03:01:34.174Z,12.38
2022-08-26T03:04:03.420Z,11.40
2022-08-26T03:06:30.152Z,14.85
2022-08-26T03:08:57.055Z,11.77
2022-08-26T03:11:27.540Z,9.45
2022-08-26T03:13:56.182Z,10.30
2022-08-26T03:16:23.049Z,12.32
2022-08-26T03:18:52.244Z,13.32
2022-08-26T03:21:19.501Z,11.10
2022-08-26T03:23:46.119Z,12.93
2022-08-26T03:26:14.417Z,12.43
2022-08-26T03:29:01.114Z,14.45
2022-08-26T03:31:29.774Z,13.27
2022-08-26T03:33:59.786Z,11.48
2022-08-26T03:36:26.659Z,10.07
2022-08-26T03:38:53.631Z,10.35
2022-08-26T03:41:21.329Z,10.80
2022-08-26T03:43:50.710Z,12.52
2022-08-26T03:46:18.585Z,10.98
2022-08-26T03:48:45.773Z,10.48
2022-08-26T03:51:19.025Z,14.10
2022-08-26T03:53:46.923Z,13.15
2022-08-26T03:56:15.235Z,11.45
2022-08-26T03:58:42.886Z,10.90
2022-08-26T04:01:09.589Z,16.27
2022-08-26T04:03:54.806Z,18.80
2022-08-26T04:06:21.403Z,10.55
2022-08-26T04:08:48.301Z,10.80
2022-08-26T04:11:19.898Z,15.10
2022-08-26T04:13:47.973Z,10.27
2022-08-26T04:16:17.928Z,12.70
2022-08-26T04:18:46.771Z,12.90
2022-08-26T04:21:15.312Z,9.95
2022-08-26T04:23:47.731Z,13.85
2022-08-26T04:26:15.462Z,13.18
2022-08-26T04:28:41.970Z,11.00
2022-08-26T04:31:13.065Z,10.30
2022-08-26T04:33:41.725Z,12.27
2022-08-26T04:36:08.815Z,12.82
2022-08-26T04:38:35.461Z,11.05
2022-08-26T04:41:03.285Z,14.63
2022-08-26T04:43:31.983Z,12.70
2022-08-26T04:46:03.360Z,11.40
2022-08-26T04:48:31.116Z,11.43
2022-08-26T04:50:58.564Z,14.23
2022-08-26T04:53:26.080Z,13.23
2022-08-26T04:55:55.123Z,22.58
2022-08-26T04:58:23.148Z,12.15
2022-08-26T05:00:52.382Z,12.43
2022-08-26T05:03:21.439Z,13.77
2022-08-26T05:05:50.073Z,14.45
2022-08-26T05:08:19.328Z,14.65
2022-08-26T05:10:48.843Z,13.10
2022-08-26T05:13:18.736Z,14.50
2022-08-26T05:15:48.240Z,13.40
2022-08-26T05:18:17.770Z,14.60
2022-08-26T05:20:49.531Z,12.20
2022-08-26T05:23:16.911Z,12.60
2022-08-26T05:25:46.548Z,17.30
2022-08-26T05:28:15.241Z,16.58
2022-08-26T05:30:42.895Z,12.45
2022-08-26T05:33:12.091Z,12.30
2022-08-26T05:35:39.469Z,15.25
2022-08-26T05:38:12.387Z,13.25
2022-08-26T05:40:43.144Z,18.25
2022-08-26T05:43:13.373Z,14.90
2022-08-26T05:45:46.081Z,17.63
2022-08-26T05:48:14.164Z,15.95
2022-08-26T05:50:43.209Z,16.02
2022-08-26T05:53:11.329Z,17.83
2022-08-26T05:55:48.590Z,18.05
2022-08-26T05:58:17.437Z,18.38
2022-08-26T06:00:44.577Z,25.38
2022-08-26T06:03:11.332Z,16.15
2022-08-26T06:05:39.834Z,15.63
2022-08-26T06:08:14.004Z,18.77
2022-08-26T06:11:00.519Z,19.13
2022-08-26T06:13:31.945Z,19.80
2022-08-26T06:15:59.661Z,18.55
2022-08-26T06:18:36.254Z,20.98
2022-08-26T06:21:19.809Z,19.25
2022-08-26T06:24:06.875Z,18.85
2022-08-26T06:26:35.660Z,22.08
2022-08-26T06:29:04.739Z,22.08
2022-08-26T06:31:33.367Z,21.17
2022-08-26T06:34:00.171Z,20.05
2022-08-26T06:36:30.648Z,21.70
2022-08-26T06:39:04.530Z,20.92
2022-08-26T06:41:33.514Z,22.75
2022-08-26T06:44:02.503Z,21.25
2022-08-26T06:46:29.583Z,22.83
2022-08-26T06:48:58.281Z,27.02
2022-08-26T06:51:30.476Z,27.33
2022-08-26T06:54:00.130Z,26.23
2022-08-26T06:56:32.743Z,30.00
2022-08-26T06:58:59.545Z,28.77
2022-08-26T07:01:29.331Z,28.60
2022-08-26T07:03:58.545Z,31.25
2022-08-26T07:06:27.418Z,28.90
2022-08-26T07:09:01.674Z,28.55
2022-08-26T07:13:58.919Z,26.20
2022-08-26T07:16:28.256Z,30.17
2022-08-26T07:18:57.397Z,27.30
2022-08-26T07:21:24.921Z,27.45
2022-08-26T07:23:57.503Z,30.30
2022-08-26T07:26:30.055Z,27.40
2022-08-26T07:28:58.303Z,25.88
2022-08-26T07:31:27.894Z,26.42
2022-08-26T07:33:56.780Z,25.90
2022-08-26T07:36:24.495Z,23.67
2022-08-26T07:38:51.800Z,25.38
2022-08-26T07:41:22.708Z,29.10
2022-08-26T07:43:49.994Z,26.40
2022-08-26T07:46:20.664Z,26.90
2022-08-26T07:48:53.478Z,25.55
2022-08-26T07:51:21.879Z,28.08
2022-08-26T07:53:52.325Z,25.92
2022-08-26T07:56:20.023Z,32.45
2022-08-26T07:58:51.516Z,27.98
2022-08-26T08:01:24.158Z,32.50
2022-08-26T08:03:52.072Z,26.50
2022-08-26T08:06:20.276Z,31.08
2022-08-26T08:08:47.539Z,27.48
2022-08-26T08:11:14.652Z,29.05
2022-08-26T08:13:41.451Z,29.17
2022-08-26T08:16:12.701Z,28.17
2022-08-26T08:18:40.132Z,29.35
2022-08-26T08:21:24.144Z,29.92
2022-08-26T08:23:53.084Z,30.75
2022-08-26T08:26:19.967Z,34.08
2022-08-26T08:28:47.836Z,32.50
2022-08-26T08:31:58.413Z,31.92
2022-08-26T08:34:35.445Z,28.73
2022-08-26T08:37:01.901Z,34.15
2022-08-26T08:39:31.552Z,30.00
2022-08-26T08:42:30.331Z,26.98
2022-08-26T08:44:59.785Z,29.17
2022-08-26T08:47:34.517Z,28.38
2022-08-26T08:50:35.314Z,25.33
2022-08-26T08:53:18.958Z,27.52
2022-08-26T08:55:57.289Z,33.60
2022-08-26T08:58:43.610Z,32.85
2022-08-26T09:04:20.450Z,30.27
2022-08-26T09:06:49.782Z,28.02
2022-08-26T09:09:39.549Z,33.38
2022-08-26T09:12:13.075Z,25.63
2022-08-26T09:14:40.700Z,29.30
2022-08-26T09:17:33.052Z,32.13
2022-08-26T09:20:23.983Z,27.52
2022-08-26T09:22:51.391Z,35.88
2022-08-26T09:25:18.708Z,30.08
2022-08-26T09:27:50.492Z,38.00
2022-08-26T09:30:30.975Z,29.27
2022-08-26T09:33:11.306Z,30.17
2022-08-26T09:35:41.160Z,30.35
2022-08-26T09:38:40.421Z,28.50
2022-08-26T09:41:22.017Z,33.45
2022-08-26T09:44:15.728Z,31.70
2022-08-26T09:46:54.117Z,28.58
2022-08-26T09:49:31.640Z,27.42
2022-08-26T09:52:25.963Z,29.50
2022-08-26T09:55:09.739Z,29.75
2022-08-26T09:57:45.669Z,29.40
2022-08-26T10:00:38.507Z,28.92
2022-08-26T10:03:17.356Z,27.50
2022-08-26T10:05:54.817Z,25.27
2022-08-26T10:08:30.004Z,28.67
2022-08-26T10:11:00.078Z,33.70
2022-08-26T10:13:42.260Z,27.95
2022-08-26T10:16:30.431Z,29.77
2022-08-26T10:19:07.611Z,27.67
2022-08-26T10:21:56.182Z,29.23
2022-08-26T10:24:30.372Z,28.58
2022-08-26T10:27:10.988Z,28.30
2022-08-26T10:29:45.810Z,31.15
2022-08-26T10:32:27.575Z,29.75
2022-08-26T10:34:54.395Z,27.33
2022-08-26T10:37:23.946Z,29.58
2022-08-26T10:40:15.861Z,25.02
2022-08-26T10:42:48.729Z,27.75
2022-08-26T10:45:20.079Z,27.55
2022-08-26T10:48:07.281Z,25.17
2022-08-26T10:50:43.094Z,24.35
2022-08-26T10:53:47.494Z,27.25
2022-08-26T10:56:46.502Z,29.48
2022-08-26T10:59:40.526Z,21.33
2022-08-26T11:02:15.492Z,25.20
2022-08-26T11:04:51.121Z,29.23
2022-08-26T11:07:31.720Z,25.15
2022-08-26T11:10:21.300Z,27.08
2022-08-26T11:12:55.307Z,27.33
2022-08-26T11:15:29.462Z,24.17
2022-08-26T11:18:20.842Z,26.58
2022-08-26T11:20:51.553Z,28.55
2022-08-26T11:23:22.303Z,25.15
2022-08-26T11:26:10.958Z,24.67
2022-08-26T11:28:44.510Z,21.50
2022-08-26T11:31:33.214Z,21.50
2022-08-26T11:34:03.378Z,21.20
2022-08-26T11:36:45.392Z,24.02
2022-08-26T11:39:21.132Z,24.35
2022-08-26T11:44:23.481Z,16.08
2022-08-26T11:46:57.246Z,24.83
2022-08-26T11:49:24.896Z,20.67
2022-08-26T11:51:51.753Z,18.08
2022-08-26T11:54:35.327Z,19.60
2022-08-26T11:57:09.425Z,21.42
2022-08-26T11:59:40.049Z,23.02
2022-08-26T12:02:15.440Z,20.58
2022-08-26T12:04:46.352Z,16.63
2022-08-26T12:07:13.391Z,23.13
2022-08-26T12:09:53.045Z,21.60
2022-08-26T12:12:34.780Z,16.35
2022-08-26T12:15:18.600Z,17.98
2022-08-26T12:17:51.736Z,14.38
2022-08-26T12:20:48.449Z,15.90
2022-08-26T12:23:22.659Z,17.02
2022-08-26T12:25:52.650Z,22.88
2022-08-26T12:28:31.122Z,18.13
2022-08-26T12:31:02.724Z,18.50
2022-08-26T12:33:30.197Z,17.25
2022-08-26T12:35:59.246Z,13.43
2022-08-26T12:38:27.459Z,20.63
2022-08-26T12:40:55.025Z,16.58
2022-08-26T12:43:43.426Z,16.55
2022-08-26T12:46:15.814Z,18.55
2022-08-26T12:48:47.335Z,17.42
2022-08-26T12:51:24.566Z,20.30
2022-08-26T12:53:51.740Z,15.02
2022-08-26T12:56:20.136Z,19.67
2022-08-26T12:59:00.892Z,13.75
2022-08-26T13:01:27.566Z,14.70
2022-08-26T13:03:54.152Z,17.42
2022-08-26T13:06:20.536Z,15.57
2022-08-26T13:08:54.037Z,14.23
2022-08-26T13:11:25.718Z,12.88
2022-08-26T13:14:00.357Z,14.57
2022-08-26T13:16:28.412Z,12.57
2022-08-26T13:19:03.983Z,10.15
2022-08-26T13:21:37.678Z,21.55
2022-08-26T13:24:17.857Z,16.90
2022-08-26T13:26:46.271Z,14.52
2022-08-26T13:29:13.238Z,14.63
2022-08-26T13:31:41.792Z,14.15
2022-08-26T13:34:10.702Z,17.92
2022-08-26T13:36:37.281Z,14.38
2022-08-26T13:39:05.203Z,13.85
2022-08-26T13:41:32.367Z,15.93
2022-08-26T13:43:59.672Z,15.93
2022-08-26T13:46:27.923Z,14.07
2022-08-26T13:48:55.255Z,11.68
2022-08-26T13:51:22.890Z,14.82
2022-08-26T13:53:50.565Z,12.73
2022-08-26T13:56:18.670Z,17.70
2022-08-26T13:58:46.044Z,12.80
2022-08-26T14:01:13.424Z,21.02
2022-08-26T14:03:40.036Z,12.35
2022-08-26T14:06:06.645Z,14.40
2022-08-26T14:08:33.096Z,12.65
2022-08-26T14:10:59.821Z,12.45
2022-08-26T14:13:26.851Z,13.90
2022-08-26T14:15:53.957Z,12.43
2022-08-26T14:18:28.284Z,14.15
2022-08-26T14:20:55.166Z,12.10
2022-08-26T14:23:22.621Z,9.07
2022-08-26T14:25:49.320Z,10.13
2022-08-26T14:28:15.909Z,11.40
2022-08-26T14:30:43.932Z,13.60
2022-08-26T14:33:13.223Z,11.95
2022-08-26T14:35:39.937Z,13.52
2022-08-26T14:38:14.900Z,15.88
2022-08-26T14:40:44.628Z,15.23
2022-08-26T14:43:15.107Z,23.30
2022-08-26T14:45:45.136Z,9.68
2022-08-26T14:48:11.631Z,9.43
2022-08-26T14:50:38.310Z,8.75
2022-08-26T14:53:23.452Z,9.35
2022-08-26T14:55:50.518Z,17.25
2022-08-26T14:58:17.296Z,11.60
2022-08-26T15:00:43.928Z,12.98
2022-08-26T15:03:10.499Z,13.98
2022-08-26T15:05:37.226Z,7.55
2022-08-26T15:08:10.191Z,9.55
2022-08-26T15:10:36.986Z,15.25
2022-08-26T15:13:03.526Z,9.90
2022-08-26T15:15:30.075Z,9.27
2022-08-26T15:17:56.889Z,7.93
2022-08-26T15:20:23.434Z,7.60
2022-08-26T15:22:50.029Z,9.38
2022-08-26T15:25:18.067Z,9.52
2022-08-26T15:27:44.756Z,9.43
2022-08-26T15:30:12.371Z,15.25
2022-08-26T15:32:39.096Z,8.30
2022-08-26T15:35:09.084Z,9.25
2022-08-26T15:37:36.517Z,8.23
2022-08-26T15:40:03.776Z,6.18
2022-08-26T15:42:30.429Z,9.48
2022-08-26T15:44:56.938Z,10.88
2022-08-26T15:47:23.788Z,8.57
2022-08-26T15:49:50.240Z,5.82
2022-08-26T15:52:17.273Z,14.85
2022-08-26T15:54:43.774Z,10.10
2022-08-26T15:57:12.347Z,8.50
2022-08-26T15:59:40.213Z,8.82
2022-08-26T16:02:07.326Z,7.82
2022-08-26T16:04:34.067Z,8.07
2022-08-26T16:07:00.932Z,10.38
2022-08-26T16:09:28.779Z,8.38
2022-08-26T16:11:56.250Z,6.47
2022-08-26T16:14:23.877Z,10.80
2022-08-26T16:16:51.011Z,6.45
2022-08-26T16:19:17.765Z,9.73
2022-08-26T16:21:44.770Z,9.30
2022-08-26T16:24:12.032Z,8.77
2022-08-26T16:26:41.252Z,7.95
2022-08-26T16:29:10.329Z,12.18
2022-08-26T16:31:38.339Z,8.68
2022-08-26T16:34:06.667Z,10.13
2022-08-26T16:36:33.723Z,8.93
2022-08-26T16:39:00.636Z,8.82
2022-08-26T16:41:28.944Z,8.25
2022-08-26T16:43:55.934Z,8.27
2022-08-26T16:46:26.037Z,10.55
2022-08-26T16:48:57.830Z,8.80
2022-08-26T16:51:27.168Z,9.32
2022-08-26T16:53:55.223Z,9.65
2022-08-26T16:56:30.595Z,7.78
2022-08-26T16:59:02.185Z,6.75
2022-08-26T17:01:28.810Z,7.97
2022-08-26T17:03:55.412Z,8.27
2022-08-26T17:06:21.955Z,7.32
2022-08-26T17:08:49.466Z,7.55
2022-08-26T17:11:16.923Z,8.15
2022-08-26T17:13:43.465Z,9.73
2022-08-26T17:16:11.659Z,7.85
2022-08-26T17:18:38.648Z,6.82
2022-08-26T17:21:11.019Z,7.47
2022-08-26T17:23:38.617Z,7.97
2022-08-26T17:26:05.305Z,8.95
2022-08-26T17:28:32.269Z,6.85
2022-08-26T17:30:59.620Z,6.32
2022-08-26T17:33:26.682Z,7.43
2022-08-26T17:35:53.648Z,7.30
2022-08-26T17:38:21.215Z,8.30
2022-08-26T17:40:47.775Z,9.35
2022-08-26T17:43:14.228Z,5.75
2022-08-26T17:45:41.422Z,8.55
2022-08-26T17:48:08.151Z,5.80
2022-08-26T17:50:34.923Z,7.55
2022-08-26T17:53:01.423Z,6.70
2022-08-26T17:55:27.995Z,5.90
2022-08-26T17:57:54.596Z,5.55
2022-08-26T18:00:26.412Z,6.32
2022-08-26T18:02:54.406Z,7.78
2022-08-26T18:05:22.242Z,4.80
2022-08-26T18:07:48.763Z,7.00
2022-08-26T18:10:20.706Z,6.93
2022-08-26T18:12:48.573Z,4.25
2022-08-26T18:15:16.806Z,5.93
2022-08-26T18:17:43.892Z,5.95
2022-08-26T18:20:13.106Z,6.40
2022-08-26T18:22:40.038Z,5.28
2022-08-26T18:25:08.298Z,6.90
2022-08-26T18:27:36.082Z,5.95
2022-08-26T18:30:13.408Z,8.25
2022-08-26T18:32:42.501Z,5.97
2022-08-26T18:35:10.374Z,5.43
2022-08-26T18:37:37.471Z,6.28
2022-08-26T18:40:07.231Z,5.05
2022-08-26T18:42:34.015Z,7.32
2022-08-26T18:45:00.728Z,7.97
2022-08-26T18:47:27.324Z,4.63
2022-08-26T18:49:53.860Z,4.57
2022-08-26T18:52:20.265Z,6.57
2022-08-26T18:54:46.726Z,7.82
2022-08-26T18:57:13.242Z,7.05
2022-08-26T18:59:40.901Z,4.82
2022-08-26T19:02:08.416Z,5.40
2022-08-26T19:04:37.217Z,4.43
2022-08-26T19:07:04.118Z,5.32
2022-08-26T19:09:31.581Z,7.00
2022-08-26T19:11:58.834Z,4.18
2022-08-26T19:14:25.297Z,6.18
2022-08-26T19:16:52.660Z,5.38
2022-08-26T19:19:21.118Z,8.45
2022-08-26T19:21:48.072Z,6.00
2022-08-26T19:24:17.572Z,7.68
2022-08-26T19:26:49.132Z,6.90
2022-08-26T19:31:49.127Z,8.88
2022-08-26T19:34:16.199Z,5.13
2022-08-26T19:36:47.490Z,13.30
2022-08-26T19:39:14.316Z,9.32
2022-08-26T19:41:41.007Z,6.18
2022-08-26T19:44:23.474Z,8.80
2022-08-26T19:46:49.936Z,5.68
2022-08-26T19:49:16.392Z,6.63
2022-08-26T19:51:42.833Z,6.13
2022-08-26T19:54:09.278Z,5.50
2022-08-26T19:56:35.723Z,8.30
2022-08-26T19:59:02.321Z,9.40
2022-08-26T20:01:28.903Z,5.03
2022-08-26T20:06:26.828Z,5.93
2022-08-26T20:08:53.876Z,6.28
2022-08-26T20:11:21.491Z,4.07
2022-08-26T20:13:47.990Z,8.10
2022-08-26T20:16:15.944Z,5.75
2022-08-26T20:19:02.886Z,7.32
2022-08-26T20:21:34.124Z,4.47
2022-08-26T20:24:05.354Z,7.40
2022-08-26T20:26:34.602Z,9.25
2022-08-26T20:29:01.388Z,11.70
2022-08-26T20:31:28.479Z,7.75
2022-08-26T20:33:55.325Z,10.18
2022-08-26T20:36:23.794Z,9.77
2022-08-26T20:38:50.639Z,8.32
2022-08-26T20:41:18.310Z,8.38
2022-08-26T20:43:46.499Z,8.10
2022-08-26T20:46:18.745Z,7.93
2022-08-26T20:48:47.997Z,7.25
2022-08-26T20:51:15.400Z,7.82
2022-08-26T20:53:42.002Z,9.80
2022-08-26T20:56:10.198Z,9.05
2022-08-26T20:58:38.386Z,8.30
2022-08-26T21:01:07.946Z,7.25
2022-08-26T21:03:35.966Z,9.10
2022-08-26T21:06:03.648Z,9.13
2022-08-26T21:08:30.664Z,5.68
2022-08-26T21:11:00.176Z,7.13
2022-08-26T21:13:26.745Z,9.88
2022-08-26T21:15:58.114Z,6.95
2022-08-26T21:18:25.234Z,7.35
2022-08-26T21:20:51.699Z,8.32
2022-08-26T21:23:18.606Z,7.53
2022-08-26T21:25:46.597Z,8.48
2022-08-26T21:28:13.487Z,7.65
2022-08-26T21:30:40.983Z,9.38
2022-08-26T21:33:08.483Z,7.65
2022-08-26T21:35:35.398Z,5.78
2022-08-26T21:38:02.072Z,9.30
2022-08-26T21:40:28.632Z,6.43
2022-08-26T21:42:55.133Z,6.95
2022-08-26T21:45:21.786Z,6.80
2022-08-26T21:47:48.277Z,5.95
2022-08-26T21:50:14.737Z,7.47
2022-08-26T21:52:41.297Z,6.35
2022-08-26T21:55:08.864Z,7.43
2022-08-26T21:57:35.680Z,7.72
2022-08-26T22:00:04.716Z,6.22
2022-08-26T22:02:31.409Z,7.15
2022-08-26T22:04:57.932Z,7.15
2022-08-26T22:07:24.458Z,5.13
2022-08-26T22:09:50.936Z,6.32
2022-08-26T22:12:18.286Z,8.57
2022-08-26T22:14:45.731Z,4.05
2022-08-26T22:17:12.373Z,5.68
2022-08-26T22:19:45.696Z,10.98
2022-08-26T22:22:14.788Z,3.50
2022-08-26T22:24:43.190Z,8.18
2022-08-26T22:27:11.874Z,7.35
2022-08-26T22:29:38.674Z,5.60
2022-08-26T22:32:05.629Z,5.88
2022-08-26T22:34:32.176Z,6.30
2022-08-26T22:36:59.143Z,4.82
2022-08-26T22:39:26.383Z,5.60
2022-08-26T22:41:53.500Z,8.20
2022-08-26T22:44:22.285Z,4.72
2022-08-26T22:46:50.226Z,6.78
2022-08-26T22:49:17.377Z,5.22
2022-08-26T22:51:45.165Z,9.68
2022-08-26T22:54:12.102Z,7.75
2022-08-26T22:56:39.332Z,5.45
2022-08-26T22:59:07.770Z,6.25
2022-08-26T23:01:36.769Z,8.48
2022-08-26T23:04:04.822Z,8.32
2022-08-26T23:06:31.309Z,9.15
2022-08-26T23:08:57.997Z,8.20
2022-08-26T23:11:24.487Z,7.85
2022-08-26T23:13:50.927Z,7.85
2022-08-26T23:16:17.432Z,7.18
2022-08-26T23:18:43.974Z,7.03
2022-08-26T23:21:10.709Z,5.40
2022-08-26T23:23:38.368Z,9.65
2022-08-26T23:26:06.964Z,7.63
2022-08-26T23:28:34.841Z,8.48
2022-08-26T23:31:01.776Z,6.57
2022-08-26T23:33:48.163Z,5.53
2022-08-26T23:36:17.688Z,8.00
2022-08-26T23:38:44.740Z,5.85
2022-08-26T23:41:18.853Z,6.03
2022-08-26T23:43:45.321Z,6.43
2022-08-26T23:46:11.843Z,5.90
2022-08-26T23:48:38.626Z,4.47
2022-08-26T23:51:23.688Z,5.90
2022-08-26T23:53:50.675Z,6.85
2022-08-26T23:56:17.727Z,6.93
2022-08-26T23:58:44.517Z,8.52
